sensor_id;sensor_type;location;lat;lon;timestamp;temperature;humidity
25963;DHT22;13760;52.588;13.406;2023-03-01T00:02:20;-2.80;99.90
25963;DHT22;13760;52.588;13.406;2023-03-01T00:04:46;-2.80;99.90
25963;DHT22;13760;52.588;13.406;2023-03-01T00:07:12;-2.80;99.90
25963;DHT22;13760;52.588;13.406;2023-03-01T00:09:38;-2.90;99.90
25963;DHT22;13760;52.588;13.406;2023-03-01T00:12:05;-2.90;99.90
25963;DHT22;13760;52.588;13.406;2023-03-01T00:14:31;-2.90;99.90
25963;DHT22;13760;52.588;13.406;2023-03-01T00:16:56;-2.90;99.90
25963;DHT22;13760;52.588;13.406;2023-03-01T00:19:22;-2.90;99.90
25963;DHT22;13760;52.588;13.406;2023-03-01T00:21:48;-2.90;99.90
25963;DHT22;13760;52.588;13.406;2023-03-01T00:24:14;-3.00;99.90
25963;DHT22;13760;52.588;13.406;2023-03-01T00:26:40;-3.00;99.90
25963;DHT22;13760;52.588;13.406;2023-03-01T00:29:05;-3.00;99.90
25963;DHT22;13760;52.588;13.406;2023-03-01T00:31:32;-3.00;99.90
25963;DHT22;13760;52.588;13.406;2023-03-01T00:34:02;-3.00;99.90
25963;DHT22;13760;52.588;13.406;2023-03-01T00:36:35;-3.00;99.90
25963;DHT22;13760;52.588;13.406;2023-03-01T00:39:05;-3.00;99.90
25963;DHT22;13760;52.588;13.406;2023-03-01T00:41:32;-3.00;99.90
25963;DHT22;13760;52.588;13.406;2023-03-01T00:43:59;-3.10;99.90
25963;DHT22;13760;52.588;13.406;2023-03-01T00:46:26;-3.10;99.90
25963;DHT22;13760;52.588;13.406;2023-03-01T00:48:52;-3.10;99.90
25963;DHT22;13760;52.588;13.406;2023-03-01T00:51:27;-3.10;99.90
25963;DHT22;13760;52.588;13.406;2023-03-01T00:53:54;-3.10;99.90
25963;DHT22;13760;52.588;13.406;2023-03-01T00:56:21;-3.10;99.90
25963;DHT22;13760;52.588;13.406;2023-03-01T00:58:46;-3.10;99.90
25963;DHT22;13760;52.588;13.406;2023-03-01T01:01:18;-3.10;99.90
25963;DHT22;13760;52.588;13.406;2023-03-01T01:03:51;-3.20;99.90
25963;DHT22;13760;52.588;13.406;2023-03-01T01:06:22;-3.20;99.90
25963;DHT22;13760;52.588;13.406;2023-03-01T01:08:48;-3.20;99.90
25963;DHT22;13760;52.588;13.406;2023-03-01T01:11:14;-3.20;99.90
25963;DHT22;13760;52.588;13.406;2023-03-01T01:13:40;-3.20;99.90
25963;DHT22;13760;52.588;13.406;2023-03-01T01:16:07;-3.30;99.90
25963;DHT22;13760;52.588;13.406;2023-03-01T01:18:32;-3.30;99.90
25963;DHT22;13760;52.588;13.406;2023-03-01T01:21:04;-3.30;99.90
25963;DHT22;13760;52.588;13.406;2023-03-01T01:23:30;-3.30;99.90
25963;DHT22;13760;52.588;13.406;2023-03-01T01:25:55;-3.40;99.90
25963;DHT22;13760;52.588;13.406;2023-03-01T01:28:21;-3.40;99.90
25963;DHT22;13760;52.588;13.406;2023-03-01T01:30:46;-3.30;99.90
25963;DHT22;13760;52.588;13.406;2023-03-01T01:33:12;-3.40;99.90
25963;DHT22;13760;52.588;13.406;2023-03-01T01:35:37;-3.40;99.90
25963;DHT22;13760;52.588;13.406;2023-03-01T01:38:03;-3.50;99.90
25963;DHT22;13760;52.588;13.406;2023-03-01T01:40:28;-3.50;99.90
25963;DHT22;13760;52.588;13.406;2023-03-01T01:42:54;-3.50;99.90
25963;DHT22;13760;52.588;13.406;2023-03-01T01:45:32;-3.40;99.90
25963;DHT22;13760;52.588;13.406;2023-03-01T01:48:12;-3.40;99.90
25963;DHT22;13760;52.588;13.406;2023-03-01T01:50:39;-3.40;99.90
25963;DHT22;13760;52.588;13.406;2023-03-01T01:53:09;-3.40;99.90
25963;DHT22;13760;52.588;13.406;2023-03-01T01:55:36;-3.40;99.90
25963;DHT22;13760;52.588;13.406;2023-03-01T01:58:04;-3.40;99.90
25963;DHT22;13760;52.588;13.406;2023-03-01T02:00:31;-3.50;99.90
25963;DHT22;13760;52.588;13.406;2023-03-01T02:03:07;-3.50;99.90
25963;DHT22;13760;52.588;13.406;2023-03-01T02:05:55;-3.60;99.90
25963;DHT22;13760;52.588;13.406;2023-03-01T02:08:25;-3.60;99.90
25963;DHT22;13760;52.588;13.406;2023-03-01T02:10:52;-3.60;99.90
25963;DHT22;13760;52.588;13.406;2023-03-01T02:13:18;-3.60;99.90
25963;DHT22;13760;52.588;13.406;2023-03-01T02:15:44;-3.60;99.90
25963;DHT22;13760;52.588;13.406;2023-03-01T02:18:12;-3.60;99.90
25963;DHT22;13760;52.588;13.406;2023-03-01T02:23:22;-3.70;99.90
25963;DHT22;13760;52.588;13.406;2023-03-01T02:26:05;-3.70;99.90
25963;DHT22;13760;52.588;13.406;2023-03-01T02:28:38;-3.80;99.90
25963;DHT22;13760;52.588;13.406;2023-03-01T02:31:09;-3.80;99.90
25963;DHT22;13760;52.588;13.406;2023-03-01T02:33:54;-3.80;99.90
25963;DHT22;13760;52.588;13.406;2023-03-01T02:36:36;-3.70;99.90
25963;DHT22;13760;52.588;13.406;2023-03-01T02:39:05;-3.70;99.90
25963;DHT22;13760;52.588;13.406;2023-03-01T02:41:35;-3.70;99.90
25963;DHT22;13760;52.588;13.406;2023-03-01T02:44:02;-3.70;99.90
25963;DHT22;13760;52.588;13.406;2023-03-01T02:46:28;-3.70;99.90
25963;DHT22;13760;52.588;13.406;2023-03-01T02:48:56;-3.70;99.90
25963;DHT22;13760;52.588;13.406;2023-03-01T02:51:48;-3.80;99.90
25963;DHT22;13760;52.588;13.406;2023-03-01T02:54:40;-3.80;99.90
25963;DHT22;13760;52.588;13.406;2023-03-01T02:57:07;-3.80;99.90
25963;DHT22;13760;52.588;13.406;2023-03-01T02:59:35;-3.80;99.90
25963;DHT22;13760;52.588;13.406;2023-03-01T03:02:05;-3.90;99.90
25963;DHT22;13760;52.588;13.406;2023-03-01T03:04:31;-3.90;99.90
25963;DHT22;13760;52.588;13.406;2023-03-01T03:06:57;-3.90;99.90
25963;DHT22;13760;52.588;13.406;2023-03-01T03:09:23;-3.90;99.90
25963;DHT22;13760;52.588;13.406;2023-03-01T03:11:48;-3.90;99.90
25963;DHT22;13760;52.588;13.406;2023-03-01T03:14:16;-3.90;99.90
25963;DHT22;13760;52.588;13.406;2023-03-01T03:16:49;-3.90;99.90
25963;DHT22;13760;52.588;13.406;2023-03-01T03:19:16;-3.90;99.90
25963;DHT22;13760;52.588;13.406;2023-03-01T03:21:42;-3.90;99.90
25963;DHT22;13760;52.588;13.406;2023-03-01T03:24:08;-3.90;99.90
25963;DHT22;13760;52.588;13.406;2023-03-01T03:26:34;-4.00;99.90
25963;DHT22;13760;52.588;13.406;2023-03-01T03:29:00;-4.00;99.90
25963;DHT22;13760;52.588;13.406;2023-03-01T03:31:25;-4.00;99.90
25963;DHT22;13760;52.588;13.406;2023-03-01T03:33:51;-4.00;99.90
25963;DHT22;13760;52.588;13.406;2023-03-01T03:36:18;-4.10;99.90
25963;DHT22;13760;52.588;13.406;2023-03-01T03:38:45;-4.10;99.90
25963;DHT22;13760;52.588;13.406;2023-03-01T03:41:12;-4.10;99.90
25963;DHT22;13760;52.588;13.406;2023-03-01T03:43:39;-4.10;99.90
25963;DHT22;13760;52.588;13.406;2023-03-01T03:46:06;-4.10;99.90
25963;DHT22;13760;52.588;13.406;2023-03-01T03:48:41;-4.10;99.90
25963;DHT22;13760;52.588;13.406;2023-03-01T03:51:10;-4.20;99.90
25963;DHT22;13760;52.588;13.406;2023-03-01T03:53:36;-4.20;99.90
25963;DHT22;13760;52.588;13.406;2023-03-01T03:56:02;-4.20;99.90
25963;DHT22;13760;52.588;13.406;2023-03-01T03:58:27;-4.20;99.90
25963;DHT22;13760;52.588;13.406;2023-03-01T04:00:56;-4.20;99.90
25963;DHT22;13760;52.588;13.406;2023-03-01T04:03:22;-4.20;99.90
25963;DHT22;13760;52.588;13.406;2023-03-01T04:05:49;-4.20;99.90
25963;DHT22;13760;52.588;13.406;2023-03-01T04:08:20;-4.20;99.90
25963;DHT22;13760;52.588;13.406;2023-03-01T04:10:48;-4.20;99.90
25963;DHT22;13760;52.588;13.406;2023-03-01T04:13:17;-4.20;99.90
25963;DHT22;13760;52.588;13.406;2023-03-01T04:15:45;-4.30;99.90
25963;DHT22;13760;52.588;13.406;2023-03-01T04:18:16;-4.30;99.90
25963;DHT22;13760;52.588;13.406;2023-03-01T04:20:42;-4.30;99.90
25963;DHT22;13760;52.588;13.406;2023-03-01T04:23:11;-4.40;99.90
25963;DHT22;13760;52.588;13.406;2023-03-01T04:25:38;-4.40;99.90
25963;DHT22;13760;52.588;13.406;2023-03-01T04:28:04;-4.40;99.90
25963;DHT22;13760;52.588;13.406;2023-03-01T04:30:30;-4.40;99.90
25963;DHT22;13760;52.588;13.406;2023-03-01T04:33:10;-4.40;99.90
25963;DHT22;13760;52.588;13.406;2023-03-01T04:35:37;-4.40;99.90
25963;DHT22;13760;52.588;13.406;2023-03-01T04:38:03;-4.30;99.90
25963;DHT22;13760;52.588;13.406;2023-03-01T04:40:29;-4.30;99.90
25963;DHT22;13760;52.588;13.406;2023-03-01T04:42:55;-4.30;99.90
25963;DHT22;13760;52.588;13.406;2023-03-01T04:45:20;-4.30;99.90
25963;DHT22;13760;52.588;13.406;2023-03-01T04:47:46;-4.30;99.90
25963;DHT22;13760;52.588;13.406;2023-03-01T04:50:14;-4.40;99.90
25963;DHT22;13760;52.588;13.406;2023-03-01T04:52:40;-4.40;99.90
25963;DHT22;13760;52.588;13.406;2023-03-01T04:55:06;-4.40;99.90
25963;DHT22;13760;52.588;13.406;2023-03-01T04:57:33;-4.40;99.90
25963;DHT22;13760;52.588;13.406;2023-03-01T04:59:58;-4.50;99.90
25963;DHT22;13760;52.588;13.406;2023-03-01T05:02:24;-4.50;99.90
25963;DHT22;13760;52.588;13.406;2023-03-01T05:04:49;-4.50;99.90
25963;DHT22;13760;52.588;13.406;2023-03-01T05:07:15;-4.50;99.90
25963;DHT22;13760;52.588;13.406;2023-03-01T05:09:45;-4.50;99.90
25963;DHT22;13760;52.588;13.406;2023-03-01T05:12:11;-4.50;99.90
25963;DHT22;13760;52.588;13.406;2023-03-01T05:14:37;-4.50;99.90
25963;DHT22;13760;52.588;13.406;2023-03-01T05:17:03;-4.50;99.90
25963;DHT22;13760;52.588;13.406;2023-03-01T05:19:30;-4.50;99.90
25963;DHT22;13760;52.588;13.406;2023-03-01T05:21:56;-4.50;99.90
25963;DHT22;13760;52.588;13.406;2023-03-01T05:24:33;-4.50;99.90
25963;DHT22;13760;52.588;13.406;2023-03-01T05:27:02;-4.50;99.90
25963;DHT22;13760;52.588;13.406;2023-03-01T05:29:29;-4.50;99.90
25963;DHT22;13760;52.588;13.406;2023-03-01T05:31:57;-4.50;99.90
25963;DHT22;13760;52.588;13.406;2023-03-01T05:34:25;-4.50;99.90
25963;DHT22;13760;52.588;13.406;2023-03-01T05:36:51;-4.50;99.90
25963;DHT22;13760;52.588;13.406;2023-03-01T05:39:22;-4.50;99.90
25963;DHT22;13760;52.588;13.406;2023-03-01T05:41:56;-4.60;99.90
25963;DHT22;13760;52.588;13.406;2023-03-01T05:44:21;-4.60;99.90
25963;DHT22;13760;52.588;13.406;2023-03-01T05:46:47;-4.60;99.90
25963;DHT22;13760;52.588;13.406;2023-03-01T05:49:15;-4.60;99.90
25963;DHT22;13760;52.588;13.406;2023-03-01T05:51:42;-4.60;99.90
25963;DHT22;13760;52.588;13.406;2023-03-01T05:54:09;-4.60;99.90
25963;DHT22;13760;52.588;13.406;2023-03-01T05:56:36;-4.60;99.90
25963;DHT22;13760;52.588;13.406;2023-03-01T05:59:03;-4.60;99.90
25963;DHT22;13760;52.588;13.406;2023-03-01T06:01:31;-4.60;99.90
25963;DHT22;13760;52.588;13.406;2023-03-01T06:03:56;-4.60;99.90
25963;DHT22;13760;52.588;13.406;2023-03-01T06:06:22;-4.60;99.90
25963;DHT22;13760;52.588;13.406;2023-03-01T06:08:48;-4.60;99.90
25963;DHT22;13760;52.588;13.406;2023-03-01T06:11:14;-4.60;99.90
25963;DHT22;13760;52.588;13.406;2023-03-01T06:13:41;-4.60;99.90
25963;DHT22;13760;52.588;13.406;2023-03-01T06:16:07;-4.60;99.90
25963;DHT22;13760;52.588;13.406;2023-03-01T06:18:33;-4.60;99.90
25963;DHT22;13760;52.588;13.406;2023-03-01T06:20:59;-4.50;99.90
25963;DHT22;13760;52.588;13.406;2023-03-01T06:23:24;-4.50;99.90
25963;DHT22;13760;52.588;13.406;2023-03-01T06:25:50;-4.50;99.90
25963;DHT22;13760;52.588;13.406;2023-03-01T06:28:16;-4.50;99.90
25963;DHT22;13760;52.588;13.406;2023-03-01T06:30:41;-4.40;99.90
25963;DHT22;13760;52.588;13.406;2023-03-01T06:33:07;-4.40;99.90
25963;DHT22;13760;52.588;13.406;2023-03-01T06:35:33;-4.30;99.90
25963;DHT22;13760;52.588;13.406;2023-03-01T06:38:00;-4.30;99.90
25963;DHT22;13760;52.588;13.406;2023-03-01T06:40:27;-4.20;99.90
25963;DHT22;13760;52.588;13.406;2023-03-01T06:42:53;-4.20;99.90
25963;DHT22;13760;52.588;13.406;2023-03-01T06:45:20;-4.20;99.90
25963;DHT22;13760;52.588;13.406;2023-03-01T06:47:45;-4.10;99.90
25963;DHT22;13760;52.588;13.406;2023-03-01T06:50:11;-4.10;99.90
25963;DHT22;13760;52.588;13.406;2023-03-01T06:52:37;-4.10;99.90
25963;DHT22;13760;52.588;13.406;2023-03-01T06:55:03;-4.00;99.90
25963;DHT22;13760;52.588;13.406;2023-03-01T06:57:29;-4.00;99.90
25963;DHT22;13760;52.588;13.406;2023-03-01T06:59:55;-3.90;99.90
25963;DHT22;13760;52.588;13.406;2023-03-01T07:02:20;-3.80;99.90
25963;DHT22;13760;52.588;13.406;2023-03-01T07:04:46;-3.70;99.90
25963;DHT22;13760;52.588;13.406;2023-03-01T07:07:14;-3.60;99.90
25963;DHT22;13760;52.588;13.406;2023-03-01T07:09:40;-3.50;99.90
25963;DHT22;13760;52.588;13.406;2023-03-01T07:12:06;-3.50;99.90
25963;DHT22;13760;52.588;13.406;2023-03-01T07:14:32;-3.40;99.90
25963;DHT22;13760;52.588;13.406;2023-03-01T07:16:57;-3.30;99.90
25963;DHT22;13760;52.588;13.406;2023-03-01T07:19:23;-3.20;99.90
25963;DHT22;13760;52.588;13.406;2023-03-01T07:21:48;-3.20;99.90
25963;DHT22;13760;52.588;13.406;2023-03-01T07:24:14;-3.10;99.90
25963;DHT22;13760;52.588;13.406;2023-03-01T07:26:39;-3.00;99.90
25963;DHT22;13760;52.588;13.406;2023-03-01T07:29:07;-2.90;99.90
25963;DHT22;13760;52.588;13.406;2023-03-01T07:31:33;-2.80;99.90
25963;DHT22;13760;52.588;13.406;2023-03-01T07:33:59;-2.70;99.90
25963;DHT22;13760;52.588;13.406;2023-03-01T07:36:24;-2.70;99.90
25963;DHT22;13760;52.588;13.406;2023-03-01T07:38:50;-2.60;99.90
25963;DHT22;13760;52.588;13.406;2023-03-01T07:41:16;-2.50;99.90
25963;DHT22;13760;52.588;13.406;2023-03-01T07:43:42;-2.40;99.90
25963;DHT22;13760;52.588;13.406;2023-03-01T07:46:07;-2.30;99.90
25963;DHT22;13760;52.588;13.406;2023-03-01T07:48:34;-2.20;99.90
25963;DHT22;13760;52.588;13.406;2023-03-01T07:51:01;-2.10;99.90
25963;DHT22;13760;52.588;13.406;2023-03-01T07:53:26;-2.00;99.90
25963;DHT22;13760;52.588;13.406;2023-03-01T07:56:06;-1.90;99.90
25963;DHT22;13760;52.588;13.406;2023-03-01T07:58:37;-1.80;99.90
25963;DHT22;13760;52.588;13.406;2023-03-01T08:01:04;-1.70;99.90
25963;DHT22;13760;52.588;13.406;2023-03-01T08:03:30;-1.50;99.90
25963;DHT22;13760;52.588;13.406;2023-03-01T08:05:58;-1.40;99.90
25963;DHT22;13760;52.588;13.406;2023-03-01T08:08:24;-1.30;99.90
25963;DHT22;13760;52.588;13.406;2023-03-01T08:10:49;-1.20;99.90
25963;DHT22;13760;52.588;13.406;2023-03-01T08:13:15;-1.00;99.90
25963;DHT22;13760;52.588;13.406;2023-03-01T08:15:40;-0.80;99.90
25963;DHT22;13760;52.588;13.406;2023-03-01T08:18:06;-0.70;99.90
25963;DHT22;13760;52.588;13.406;2023-03-01T08:20:32;-0.50;99.90
25963;DHT22;13760;52.588;13.406;2023-03-01T08:22:58;-0.30;99.90
25963;DHT22;13760;52.588;13.406;2023-03-01T08:25:23;-0.20;99.90
25963;DHT22;13760;52.588;13.406;2023-03-01T08:27:49;0.00;99.90
25963;DHT22;13760;52.588;13.406;2023-03-01T08:30:15;0.20;99.90
25963;DHT22;13760;52.588;13.406;2023-03-01T08:32:40;0.40;99.90
25963;DHT22;13760;52.588;13.406;2023-03-01T08:35:06;0.60;99.90
25963;DHT22;13760;52.588;13.406;2023-03-01T08:37:32;0.90;99.90
25963;DHT22;13760;52.588;13.406;2023-03-01T08:39:59;1.10;99.90
25963;DHT22;13760;52.588;13.406;2023-03-01T08:42:25;1.30;99.90
25963;DHT22;13760;52.588;13.406;2023-03-01T08:44:51;1.60;99.90
25963;DHT22;13760;52.588;13.406;2023-03-01T08:47:16;1.80;99.90
25963;DHT22;13760;52.588;13.406;2023-03-01T08:49:42;2.00;99.90
25963;DHT22;13760;52.588;13.406;2023-03-01T08:52:08;2.20;99.90
25963;DHT22;13760;52.588;13.406;2023-03-01T08:54:33;2.40;99.90
25963;DHT22;13760;52.588;13.406;2023-03-01T08:57:02;2.60;99.90
25963;DHT22;13760;52.588;13.406;2023-03-01T08:59:27;2.80;99.90
25963;DHT22;13760;52.588;13.406;2023-03-01T09:01:55;2.90;99.90
25963;DHT22;13760;52.588;13.406;2023-03-01T09:04:21;3.00;99.90
25963;DHT22;13760;52.588;13.406;2023-03-01T09:06:46;3.20;99.90
25963;DHT22;13760;52.588;13.406;2023-03-01T09:09:15;3.40;99.90
25963;DHT22;13760;52.588;13.406;2023-03-01T09:11:41;3.50;99.90
25963;DHT22;13760;52.588;13.406;2023-03-01T09:14:07;3.60;99.90
25963;DHT22;13760;52.588;13.406;2023-03-01T09:16:33;3.70;99.90
25963;DHT22;13760;52.588;13.406;2023-03-01T09:19:01;3.80;99.90
25963;DHT22;13760;52.588;13.406;2023-03-01T09:21:27;3.80;99.90
25963;DHT22;13760;52.588;13.406;2023-03-01T09:23:52;4.00;99.90
25963;DHT22;13760;52.588;13.406;2023-03-01T09:26:19;4.00;99.90
25963;DHT22;13760;52.588;13.406;2023-03-01T09:28:52;4.10;99.90
25963;DHT22;13760;52.588;13.406;2023-03-01T09:31:20;4.20;99.90
25963;DHT22;13760;52.588;13.406;2023-03-01T09:33:47;4.20;99.90
25963;DHT22;13760;52.588;13.406;2023-03-01T09:36:19;4.20;99.90
25963;DHT22;13760;52.588;13.406;2023-03-01T09:39:03;4.20;99.90
25963;DHT22;13760;52.588;13.406;2023-03-01T09:46:52;4.30;99.90
25963;DHT22;13760;52.588;13.406;2023-03-01T09:49:21;4.40;99.90
25963;DHT22;13760;52.588;13.406;2023-03-01T09:52:27;4.40;99.90
25963;DHT22;13760;52.588;13.406;2023-03-01T09:54:55;4.50;99.90
25963;DHT22;13760;52.588;13.406;2023-03-01T09:57:36;4.50;99.90
25963;DHT22;13760;52.588;13.406;2023-03-01T10:05:47;4.80;99.90
25963;DHT22;13760;52.588;13.406;2023-03-01T10:08:31;4.90;99.90
25963;DHT22;13760;52.588;13.406;2023-03-01T10:11:02;5.00;99.90
25963;DHT22;13760;52.588;13.406;2023-03-01T10:13:50;5.10;99.90
25963;DHT22;13760;52.588;13.406;2023-03-01T10:16:43;5.10;99.90
25963;DHT22;13760;52.588;13.406;2023-03-01T10:19:26;5.20;99.90
25963;DHT22;13760;52.588;13.406;2023-03-01T10:22:00;5.20;99.90
25963;DHT22;13760;52.588;13.406;2023-03-01T10:24:32;5.20;99.90
25963;DHT22;13760;52.588;13.406;2023-03-01T10:27:12;5.20;99.90
25963;DHT22;13760;52.588;13.406;2023-03-01T10:32:17;5.40;99.90
25963;DHT22;13760;52.588;13.406;2023-03-01T10:34:43;5.40;99.90
25963;DHT22;13760;52.588;13.406;2023-03-01T10:37:15;5.50;99.90
25963;DHT22;13760;52.588;13.406;2023-03-01T10:42:31;5.70;99.90
25963;DHT22;13760;52.588;13.406;2023-03-01T10:44:57;5.90;99.90
25963;DHT22;13760;52.588;13.406;2023-03-01T10:47:26;6.00;99.90
25963;DHT22;13760;52.588;13.406;2023-03-01T10:49:53;6.10;97.70
25963;DHT22;13760;52.588;13.406;2023-03-01T10:52:25;6.10;97.70
25963;DHT22;13760;52.588;13.406;2023-03-01T10:54:54;6.20;98.20
25963;DHT22;13760;52.588;13.406;2023-03-01T10:57:36;6.40;95.30
25963;DHT22;13760;52.588;13.406;2023-03-01T11:00:25;6.50;94.90
25963;DHT22;13760;52.588;13.406;2023-03-01T11:03:11;6.60;94.00
25963;DHT22;13760;52.588;13.406;2023-03-01T11:05:50;6.70;92.10
25963;DHT22;13760;52.588;13.406;2023-03-01T11:08:36;6.80;92.90
25963;DHT22;13760;52.588;13.406;2023-03-01T11:11:23;6.90;92.20
25963;DHT22;13760;52.588;13.406;2023-03-01T11:13:53;7.00;91.10
25963;DHT22;13760;52.588;13.406;2023-03-01T11:18:57;7.20;90.60
25963;DHT22;13760;52.588;13.406;2023-03-01T11:21:24;7.30;89.90
25963;DHT22;13760;52.588;13.406;2023-03-01T11:23:52;7.40;88.50
25963;DHT22;13760;52.588;13.406;2023-03-01T11:26:18;7.50;88.90
25963;DHT22;13760;52.588;13.406;2023-03-01T11:28:48;7.70;86.10
25963;DHT22;13760;52.588;13.406;2023-03-01T11:31:15;7.70;83.70
25963;DHT22;13760;52.588;13.406;2023-03-01T11:33:55;7.90;83.30
25963;DHT22;13760;52.588;13.406;2023-03-01T11:36:46;7.90;81.90
25963;DHT22;13760;52.588;13.406;2023-03-01T11:42:27;8.10;79.80
25963;DHT22;13760;52.588;13.406;2023-03-01T11:44:55;8.10;78.70
25963;DHT22;13760;52.588;13.406;2023-03-01T11:50:11;8.20;76.80
25963;DHT22;13760;52.588;13.406;2023-03-01T11:52:50;8.30;78.80
25963;DHT22;13760;52.588;13.406;2023-03-01T11:55:34;8.30;75.10
25963;DHT22;13760;52.588;13.406;2023-03-01T11:58:30;8.30;74.10
25963;DHT22;13760;52.588;13.406;2023-03-01T12:04:07;8.40;76.10
25963;DHT22;13760;52.588;13.406;2023-03-01T12:06:49;8.50;77.00
25963;DHT22;13760;52.588;13.406;2023-03-01T12:09:18;8.70;78.10
25963;DHT22;13760;52.588;13.406;2023-03-01T12:12:01;8.80;75.20
25963;DHT22;13760;52.588;13.406;2023-03-01T12:22:32;9.00;77.40
25963;DHT22;13760;52.588;13.406;2023-03-01T12:25:23;9.00;71.40
25963;DHT22;13760;52.588;13.406;2023-03-01T12:31:04;9.20;71.10
25963;DHT22;13760;52.588;13.406;2023-03-01T12:33:54;9.20;67.30
25963;DHT22;13760;52.588;13.406;2023-03-01T12:39:26;9.00;64.60
25963;DHT22;13760;52.588;13.406;2023-03-01T12:50:13;9.30;62.40
25963;DHT22;13760;52.588;13.406;2023-03-01T12:52:52;9.40;62.20
25963;DHT22;13760;52.588;13.406;2023-03-01T12:55:39;9.40;59.90
25963;DHT22;13760;52.588;13.406;2023-03-01T12:58:28;9.50;59.60
25963;DHT22;13760;52.588;13.406;2023-03-01T13:01:24;9.60;58.70
25963;DHT22;13760;52.588;13.406;2023-03-01T13:09:24;9.80;56.90
25963;DHT22;13760;52.588;13.406;2023-03-01T13:11:53;9.80;54.90
25963;DHT22;13760;52.588;13.406;2023-03-01T13:16:51;9.80;60.70
25963;DHT22;13760;52.588;13.406;2023-03-01T13:19:26;9.90;62.30
25963;DHT22;13760;52.588;13.406;2023-03-01T13:21:54;9.90;59.40
25963;DHT22;13760;52.588;13.406;2023-03-01T13:27:10;9.80;59.30
25963;DHT22;13760;52.588;13.406;2023-03-01T13:34:53;9.50;56.40
25963;DHT22;13760;52.588;13.406;2023-03-01T13:37:27;9.40;57.00
25963;DHT22;13760;52.588;13.406;2023-03-01T13:39:56;9.40;57.80
25963;DHT22;13760;52.588;13.406;2023-03-01T13:42:40;9.40;57.90
25963;DHT22;13760;52.588;13.406;2023-03-01T13:48:23;9.70;60.00
25963;DHT22;13760;52.588;13.406;2023-03-01T13:50:53;9.90;61.40
25963;DHT22;13760;52.588;13.406;2023-03-01T13:53:22;10.00;59.40
25963;DHT22;13760;52.588;13.406;2023-03-01T13:55:58;9.90;59.80
25963;DHT22;13760;52.588;13.406;2023-03-01T13:58:30;9.90;61.60
25963;DHT22;13760;52.588;13.406;2023-03-01T14:01:05;9.80;58.50
25963;DHT22;13760;52.588;13.406;2023-03-01T14:03:39;9.60;58.40
25963;DHT22;13760;52.588;13.406;2023-03-01T14:06:13;9.60;59.30
25963;DHT22;13760;52.588;13.406;2023-03-01T14:08:41;9.70;59.70
25963;DHT22;13760;52.588;13.406;2023-03-01T14:16:35;9.70;59.70
25963;DHT22;13760;52.588;13.406;2023-03-01T14:19:17;9.60;60.50
25963;DHT22;13760;52.588;13.406;2023-03-01T14:21:44;9.60;61.00
25963;DHT22;13760;52.588;13.406;2023-03-01T14:24:21;9.50;61.80
25963;DHT22;13760;52.588;13.406;2023-03-01T14:26:49;9.50;63.50
25963;DHT22;13760;52.588;13.406;2023-03-01T14:29:53;9.50;61.60
25963;DHT22;13760;52.588;13.406;2023-03-01T14:32:21;9.30;62.00
25963;DHT22;13760;52.588;13.406;2023-03-01T14:34:50;9.30;63.00
25963;DHT22;13760;52.588;13.406;2023-03-01T14:37:22;9.30;63.30
25963;DHT22;13760;52.588;13.406;2023-03-01T14:39:49;9.20;61.30
25963;DHT22;13760;52.588;13.406;2023-03-01T14:45:29;8.90;62.50
25963;DHT22;13760;52.588;13.406;2023-03-01T14:47:59;8.70;62.70
25963;DHT22;13760;52.588;13.406;2023-03-01T14:50:31;8.50;61.90
25963;DHT22;13760;52.588;13.406;2023-03-01T14:53:04;8.50;63.70
25963;DHT22;13760;52.588;13.406;2023-03-01T14:55:41;8.50;64.50
25963;DHT22;13760;52.588;13.406;2023-03-01T14:58:18;8.40;63.10
25963;DHT22;13760;52.588;13.406;2023-03-01T15:00:56;8.30;64.00
25963;DHT22;13760;52.588;13.406;2023-03-01T15:03:35;8.30;65.00
25963;DHT22;13760;52.588;13.406;2023-03-01T15:09:16;8.30;64.40
25963;DHT22;13760;52.588;13.406;2023-03-01T15:11:42;8.20;64.30
25963;DHT22;13760;52.588;13.406;2023-03-01T15:14:36;8.20;63.80
25963;DHT22;13760;52.588;13.406;2023-03-01T15:17:04;8.20;64.60
25963;DHT22;13760;52.588;13.406;2023-03-01T15:19:29;8.20;65.40
25963;DHT22;13760;52.588;13.406;2023-03-01T15:21:55;8.10;66.40
25963;DHT22;13760;52.588;13.406;2023-03-01T15:24:24;8.10;66.40
25963;DHT22;13760;52.588;13.406;2023-03-01T15:26:51;8.10;66.70
25963;DHT22;13760;52.588;13.406;2023-03-01T15:29:26;8.10;66.90
25963;DHT22;13760;52.588;13.406;2023-03-01T15:34:37;8.10;68.40
25963;DHT22;13760;52.588;13.406;2023-03-01T15:37:06;8.10;68.90
25963;DHT22;13760;52.588;13.406;2023-03-01T15:42:10;8.00;70.70
25963;DHT22;13760;52.588;13.406;2023-03-01T15:44:38;7.90;71.60
25963;DHT22;13760;52.588;13.406;2023-03-01T15:47:29;7.90;72.10
25963;DHT22;13760;52.588;13.406;2023-03-01T15:49:54;7.80;72.90
25963;DHT22;13760;52.588;13.406;2023-03-01T15:52:27;7.80;73.40
25963;DHT22;13760;52.588;13.406;2023-03-01T15:55:14;7.70;74.30
25963;DHT22;13760;52.588;13.406;2023-03-01T15:57:40;7.60;75.00
25963;DHT22;13760;52.588;13.406;2023-03-01T16:00:08;7.50;76.10
25963;DHT22;13760;52.588;13.406;2023-03-01T16:02:37;7.40;76.30
25963;DHT22;13760;52.588;13.406;2023-03-01T16:05:04;7.40;77.20
25963;DHT22;13760;52.588;13.406;2023-03-01T16:07:29;7.30;78.20
25963;DHT22;13760;52.588;13.406;2023-03-01T16:09:56;7.20;79.00
25963;DHT22;13760;52.588;13.406;2023-03-01T16:12:23;7.10;79.60
25963;DHT22;13760;52.588;13.406;2023-03-01T16:14:50;7.00;80.40
25963;DHT22;13760;52.588;13.406;2023-03-01T16:17:15;6.90;80.50
25963;DHT22;13760;52.588;13.406;2023-03-01T16:19:41;6.80;81.00
25963;DHT22;13760;52.588;13.406;2023-03-01T16:22:08;6.70;82.90
25963;DHT22;13760;52.588;13.406;2023-03-01T16:24:34;6.70;83.50
25963;DHT22;13760;52.588;13.406;2023-03-01T16:27:01;6.60;84.10
25963;DHT22;13760;52.588;13.406;2023-03-01T16:29:27;6.60;84.70
25963;DHT22;13760;52.588;13.406;2023-03-01T16:31:54;6.50;85.60
25963;DHT22;13760;52.588;13.406;2023-03-01T16:34:20;6.30;86.80
25963;DHT22;13760;52.588;13.406;2023-03-01T16:36:47;6.20;88.10
25963;DHT22;13760;52.588;13.406;2023-03-01T16:39:13;6.10;88.80
25963;DHT22;13760;52.588;13.406;2023-03-01T16:41:38;6.00;90.00
25963;DHT22;13760;52.588;13.406;2023-03-01T16:44:04;5.90;90.40
25963;DHT22;13760;52.588;13.406;2023-03-01T16:46:29;5.80;90.80
25963;DHT22;13760;52.588;13.406;2023-03-01T16:48:55;5.70;91.30
25963;DHT22;13760;52.588;13.406;2023-03-01T16:51:23;5.70;92.20
25963;DHT22;13760;52.588;13.406;2023-03-01T16:53:50;5.60;92.90
25963;DHT22;13760;52.588;13.406;2023-03-01T16:56:17;5.50;93.90
25963;DHT22;13760;52.588;13.406;2023-03-01T16:58:43;5.40;94.20
25963;DHT22;13760;52.588;13.406;2023-03-01T17:01:17;5.30;95.30
25963;DHT22;13760;52.588;13.406;2023-03-01T17:03:45;5.20;96.10
25963;DHT22;13760;52.588;13.406;2023-03-01T17:06:16;5.10;97.30
25963;DHT22;13760;52.588;13.406;2023-03-01T17:08:41;5.00;98.30